Time;durP1;ratioP1;P1;durP2;ratioP2;P2;SDS_P1;SDS_P2;PMS_P1;PMS_P2;Temp;Humidity;BMP_temperature;BMP_pressure;BME280_temperature;BME280_humidity;BME280_pressure;Samples;Min_cycle;Max_cycle;Signal;HPM_P1;HPM_P2
2021/12/02 00:01:20;;;;;;;3.00;2.57;;;;;;;7.18;83.48;99557.84;5061312;28;20635;-74
2021/12/02 00:03:48;;;;;;;5.40;2.20;;;;;;;7.65;83.32;99617.22;5072129;28;20194;-77
2021/12/02 00:06:17;;;;;;;2.07;1.90;;;;;;;7.60;81.88;99621.44;5072558;28;20194;-76
2021/12/02 00:08:45;;;;;;;2.50;2.10;;;;;;;7.60;81.91;99598.22;5072982;28;20289;-76
2021/12/02 00:11:11;;;;;;;4.70;2.53;;;;;;;7.79;81.13;99621.78;5072508;28;20195;-77
2021/12/02 00:13:49;;;;;;;5.13;2.57;;;;;;;7.83;81.06;99615.84;5055420;28;20198;-75
2021/12/02 00:16:24;;;;;;;1.70;1.60;;;;;;;7.80;80.38;99627.81;5052641;28;20297;-76
2021/12/02 00:21:37;;;;;;;4.57;2.00;;;;;;;7.78;82.01;99635.53;5072507;28;20206;-78
2021/12/02 00:24:06;;;;;;;2.93;2.13;;;;;;;7.86;79.41;99640.84;5072191;28;20195;-75
2021/12/02 00:26:35;;;;;;;3.90;2.33;;;;;;;8.05;78.62;99639.47;5070482;28;20198;-75
2021/12/02 00:29:06;;;;;;;4.00;2.23;;;;;;;8.04;77.10;99643.75;5072180;28;20190;-76
2021/12/02 00:31:35;;;;;;;3.20;2.57;;;;;;;7.94;82.76;99641.84;5071334;28;20195;-75
2021/12/02 00:34:05;;;;;;;6.00;3.10;;;;;;;7.53;93.04;99650.53;5066554;28;20262;-76
2021/12/02 00:36:34;;;;;;;3.80;2.77;;;;;;;6.99;99.21;99645.94;5052378;28;20235;-74
2021/12/02 00:39:07;;;;;;;3.93;3.17;;;;;;;6.68;100.00;99659.81;5065235;28;20616;-74
2021/12/02 00:41:34;;;;;;;3.97;3.20;;;;;;;6.48;100.00;99661.94;5072187;28;20631;-75
2021/12/02 00:44:01;;;;;;;4.20;3.40;;;;;;;6.31;100.00;99665.78;5071766;28;20244;-77
2021/12/02 00:46:31;;;;;;;4.70;3.63;;;;;;;6.06;100.00;99667.69;5052287;28;20195;-75
2021/12/02 00:49:02;;;;;;;8.00;3.43;;;;;;;5.78;100.00;99660.94;5052753;28;20207;-75
2021/12/02 00:51:29;;;;;;;5.40;3.63;;;;;;;5.67;100.00;99667.47;5052430;28;20269;-76
2021/12/02 00:53:56;;;;;;;5.80;2.73;;;;;;;5.61;100.00;99664.72;5053088;28;20212;-75
2021/12/02 00:56:24;;;;;;;3.03;2.70;;;;;;;5.46;100.00;99658.31;5051844;28;20227;-77
2021/12/02 00:58:52;;;;;;;6.07;2.77;;;;;;;5.41;100.00;99670.19;5071696;28;20195;-77
2021/12/02 01:01:20;;;;;;;6.53;3.50;;;;;;;5.35;100.00;99670.00;5071664;28;20223;-74
2021/12/02 01:03:50;;;;;;;4.53;2.73;;;;;;;5.27;100.00;99668.91;5070913;28;20620;-74
2021/12/02 01:06:17;;;;;;;4.13;2.73;;;;;;;5.02;100.00;99663.88;5059074;28;20223;-74
2021/12/02 01:08:44;;;;;;;2.73;2.53;;;;;;;4.85;100.00;99671.03;5061105;28;20194;-74
2021/12/02 01:11:12;;;;;;;7.83;3.70;;;;;;;4.65;100.00;99628.50;5072013;28;20195;-74
2021/12/02 01:13:39;;;;;;;4.60;3.30;;;;;;;4.95;100.00;99661.94;5071983;28;20187;-76
2021/12/02 01:16:06;;;;;;;3.10;2.87;;;;;;;4.92;100.00;99656.72;5070499;28;20226;-76
2021/12/02 01:18:33;;;;;;;3.37;2.80;;;;;;;4.77;100.00;99618.59;5054293;28;20198;-76
2021/12/02 01:21:03;;;;;;;5.33;3.77;;;;;;;4.54;100.00;99629.84;5069387;28;20248;-76
2021/12/02 01:23:32;;;;;;;4.00;3.27;;;;;;;4.55;100.00;99625.59;5071732;28;20570;-76
2021/12/02 01:26:03;;;;;;;4.37;2.73;;;;;;;4.69;100.00;99639.72;5071953;28;20213;-77
2021/12/02 01:28:31;;;;;;;3.87;3.20;;;;;;;4.50;100.00;99631.44;5071451;28;20195;-75
2021/12/02 01:30:58;;;;;;;11.30;3.70;;;;;;;4.32;100.00;99646.25;5071450;28;20688;-75
2021/12/02 01:33:28;;;;;;;5.30;3.73;;;;;;;4.46;100.00;99645.00;5070929;28;20202;-75
2021/12/02 01:35:58;;;;;;;4.93;3.53;;;;;;;4.47;100.00;99636.47;5068160;28;20665;-75
2021/12/02 01:38:27;;;;;;;5.07;4.20;;;;;;;4.35;100.00;99636.06;5051312;28;20191;-74
2021/12/02 01:40:55;;;;;;;5.77;3.43;;;;;;;4.35;100.00;99619.84;5051430;28;20204;-74
2021/12/02 01:43:36;;;;;;;6.30;3.00;;;;;;;4.45;100.00;99627.88;5061162;28;20195;-77
2021/12/02 01:46:03;;;;;;;9.30;3.03;;;;;;;4.32;100.00;99620.59;5071689;28;20601;-75
2021/12/02 01:48:32;;;;;;;3.30;2.53;;;;;;;4.38;100.00;99625.94;5071621;28;20187;-76
2021/12/02 01:51:04;;;;;;;3.60;2.57;;;;;;;4.37;100.00;99624.19;5071400;28;20264;-76
2021/12/02 01:53:36;;;;;;;8.90;3.70;;;;;;;4.26;100.00;99617.84;5071025;28;20202;-76
2021/12/02 01:56:09;;;;;;;4.90;3.47;;;;;;;4.33;100.00;99606.06;5063701;28;20257;-74
2021/12/02 01:58:42;;;;;;;6.33;3.87;;;;;;;4.32;100.00;99604.31;5051403;28;20206;-74
2021/12/02 02:01:15;;;;;;;8.40;4.33;;;;;;;4.08;100.00;99568.50;5051237;28;20791;-75
2021/12/02 02:03:43;;;;;;;4.70;3.33;;;;;;;4.23;100.00;99594.66;5069977;28;20669;-75
2021/12/02 02:06:11;;;;;;;5.50;3.57;;;;;;;4.24;100.00;99581.00;5071336;28;20201;-74
2021/12/02 02:08:46;;;;;;;7.30;4.20;;;;;;;4.25;100.00;99603.25;5065151;28;20620;-76
2021/12/02 02:11:13;;;;;;;7.30;4.60;;;;;;;4.11;100.00;99573.72;5051146;28;20249;-74
2021/12/02 02:13:42;;;;;;;10.70;5.03;;;;;;;4.32;100.00;99601.75;5051187;28;20195;-76
2021/12/02 02:16:09;;;;;;;17.13;6.97;;;;;;;4.31;100.00;99587.19;5062336;28;20191;-74
2021/12/02 02:18:37;;;;;;;13.80;5.83;;;;;;;4.39;100.00;99607.13;5070803;28;20195;-76
2021/12/02 02:21:08;;;;;;;8.93;5.40;;;;;;;4.45;100.00;99607.34;5070848;28;20246;-76
2021/12/02 02:23:39;;;;;;;12.43;5.33;;;;;;;4.41;100.00;99605.50;5070860;28;20575;-77
2021/12/02 02:26:08;;;;;;;9.13;5.40;;;;;;;4.39;100.00;99602.00;5071229;28;20191;-76
2021/12/02 02:28:35;;;;;;;11.37;5.23;;;;;;;4.33;100.00;99606.94;5053403;28;20594;-77
2021/12/02 02:31:03;;;;;;;9.50;4.80;;;;;;;4.17;100.00;99614.97;5051193;28;20647;-75
2021/12/02 02:33:35;;;;;;;8.27;4.93;;;;;;;4.20;100.00;99604.81;5064570;28;20249;-76
2021/12/02 02:36:02;;;;;;;11.50;5.27;;;;;;;4.18;100.00;99601.31;5059620;28;20254;-76
2021/12/02 02:38:31;;;;;;;6.07;5.00;;;;;;;4.12;100.00;99585.72;5054463;28;20206;-75
2021/12/02 02:41:00;;;;;;;9.73;4.53;;;;;;;4.10;100.00;99600.22;5054929;28;20286;-74
2021/12/02 02:43:27;;;;;;;8.33;5.30;;;;;;;4.13;100.00;99590.06;5054498;28;20192;-75
2021/12/02 02:45:54;;;;;;;11.13;6.07;;;;;;;3.89;100.00;99596.91;5054481;28;20207;-77
2021/12/02 02:48:21;;;;;;;9.83;5.80;;;;;;;3.92;100.00;99592.75;5054299;28;20525;-74
2021/12/02 02:50:48;;;;;;;8.20;5.10;;;;;;;4.14;100.00;99596.91;5054213;28;20206;-75
2021/12/02 02:53:19;;;;;;;6.93;4.57;;;;;;;4.29;100.00;99605.09;5066595;28;20199;-77
2021/12/02 02:55:54;;;;;;;7.93;4.57;;;;;;;4.16;100.00;99579.88;5074202;28;20811;-76
2021/12/02 02:58:29;;;;;;;7.40;4.20;;;;;;;4.36;100.00;99614.72;5074267;28;20232;-76
2021/12/02 03:01:03;;;;;;;7.47;4.40;;;;;;;4.13;100.00;99600.31;5066404;28;20222;-76
2021/12/02 03:03:36;;;;;;;5.20;3.60;;;;;;;4.03;100.00;99569.19;5053400;28;20273;-77
2021/12/02 03:06:27;;;;;;;7.17;4.03;;;;;;;4.38;100.00;99574.63;5053850;28;20238;-74
2021/12/02 03:08:57;;;;;;;5.57;4.30;;;;;;;4.43;100.00;99578.19;5055413;28;20199;-75
2021/12/02 03:11:28;;;;;;;5.33;4.47;;;;;;;4.44;100.00;99576.47;5073999;28;20647;-74
2021/12/02 03:13:56;;;;;;;4.50;2.70;;;;;;;4.64;100.00;99577.09;5062752;28;20260;-75
2021/12/02 03:16:44;;;;;;;3.50;2.60;;;;;;;5.06;100.00;99578.38;5053331;28;20196;-75
2021/12/02 03:19:15;;;;;;;6.83;3.67;;;;;;;5.30;100.00;99573.91;5058504;28;20854;-76
2021/12/02 03:21:42;;;;;;;5.03;3.40;;;;;;;5.38;100.00;99582.72;5073953;28;20195;-75
2021/12/02 03:24:09;;;;;;;5.97;4.07;;;;;;;5.31;100.00;99596.22;5073732;28;20198;-74
2021/12/02 03:26:37;;;;;;;6.53;3.80;;;;;;;5.23;100.00;99597.69;5073645;28;20191;-74
2021/12/02 03:29:05;;;;;;;10.83;5.07;;;;;;;5.11;100.00;99592.19;5073616;28;20198;-76
2021/12/02 03:31:32;;;;;;;11.03;4.63;;;;;;;4.77;100.00;99569.81;5073764;28;20195;-76
2021/12/02 03:34:00;;;;;;;8.47;5.27;;;;;;;4.70;100.00;99600.38;5072551;28;20615;-76
2021/12/02 03:36:28;;;;;;;5.33;4.57;;;;;;;4.34;100.00;99572.78;5073048;28;20703;-77
2021/12/02 03:38:56;;;;;;;7.33;4.40;;;;;;;4.33;100.00;99596.69;5066044;28;20191;-77
2021/12/02 03:41:24;;;;;;;7.83;4.90;;;;;;;4.21;100.00;99591.16;5053308;28;20697;-76
2021/12/02 03:43:53;;;;;;;6.60;4.93;;;;;;;4.06;100.00;99539.38;5052784;28;20693;-77
2021/12/02 03:46:23;;;;;;;7.37;4.53;;;;;;;4.23;100.00;99588.66;5071874;28;20195;-76
2021/12/02 03:48:51;;;;;;;13.70;5.17;;;;;;;4.19;100.00;99589.34;5072857;28;20195;-75
2021/12/02 03:51:19;;;;;;;43.07;20.70;;;;;;;3.90;100.00;99558.50;5072835;28;20198;-76
2021/12/02 03:53:46;;;;;;;15.80;8.97;;;;;;;3.97;100.00;99580.09;5073131;28;20559;-74
2021/12/02 03:56:13;;;;;;;12.70;7.43;;;;;;;3.97;100.00;99574.97;5073149;28;20195;-74
2021/12/02 03:58:42;;;;;;;13.37;5.70;;;;;;;3.92;100.00;99569.69;5064261;28;20298;-76
2021/12/02 04:01:11;;;;;;;9.23;5.70;;;;;;;3.92;100.00;99586.78;5052380;28;20234;-75
2021/12/02 04:03:39;;;;;;;9.53;4.37;;;;;;;3.93;100.00;99583.38;5052040;28;20202;-76
2021/12/02 04:06:07;;;;;;;9.40;6.03;;;;;;;3.82;100.00;99564.19;5053001;28;20564;-75
2021/12/02 04:08:41;;;;;;;7.43;5.67;;;;;;;3.92;100.00;99581.66;5052717;28;20205;-76
2021/12/02 04:11:22;;;;;;;10.77;6.17;;;;;;;3.65;100.00;99540.56;5063755;28;20213;-74
2021/12/02 04:13:59;;;;;;;19.83;9.97;;;;;;;3.83;100.00;99553.13;5067853;28;20692;-77
2021/12/02 04:16:29;;;;;;;18.87;8.37;;;;;;;3.82;100.00;99554.81;5052990;28;20260;-75
2021/12/02 04:18:56;;;;;;;17.10;6.80;;;;;;;3.79;100.00;99558.97;5053671;28;20223;-75
2021/12/02 04:21:23;;;;;;;10.27;6.60;;;;;;;3.72;100.00;99567.28;5052770;28;20195;-74
2021/12/02 04:23:50;;;;;;;12.67;5.97;;;;;;;3.67;100.00;99568.84;5052345;28;20200;-75
2021/12/02 04:26:17;;;;;;;9.80;8.17;;;;;;;3.60;100.00;99562.63;5052757;28;20192;-75
2021/12/02 04:28:44;;;;;;;11.87;7.83;;;;;;;3.46;100.00;99557.00;5052248;28;20271;-73
2021/12/02 04:31:10;;;;;;;15.10;8.87;;;;;;;3.39;100.00;99555.06;5052695;28;20195;-74
2021/12/02 04:33:39;;;;;;;16.40;10.27;;;;;;;3.36;100.00;99559.22;5051797;28;20195;-75
2021/12/02 04:36:06;;;;;;;20.27;9.93;;;;;;;3.35;100.00;99563.44;5058735;28;20662;-74
2021/12/02 04:38:34;;;;;;;16.80;9.33;;;;;;;3.53;100.00;99557.25;5072321;28;20284;-77
2021/12/02 04:41:00;;;;;;;37.40;18.67;;;;;;;3.72;100.00;99541.66;5072531;28;20198;-76
2021/12/02 04:43:27;;;;;;;21.63;13.00;;;;;;;3.66;100.00;99541.44;5072272;28;20195;-74
2021/12/02 04:45:54;;;;;;;28.17;11.30;;;;;;;3.37;100.00;99502.91;5072682;28;20213;-76
2021/12/02 04:48:22;;;;;;;26.30;11.80;;;;;;;3.81;100.00;99554.78;5072848;28;20209;-75
2021/12/02 04:50:51;;;;;;;23.93;14.20;;;;;;;3.82;100.00;99579.59;5072119;28;20655;-73
2021/12/02 04:53:18;;;;;;;10.57;6.93;;;;;;;3.79;100.00;99589.75;5072105;28;20574;-75
2021/12/02 04:55:45;;;;;;;13.33;8.10;;;;;;;3.75;100.00;99593.00;5063987;28;20662;-74
2021/12/02 04:58:12;;;;;;;22.97;13.00;;;;;;;3.50;100.00;99542.63;5052699;28;20234;-73
2021/12/02 05:00:38;;;;;;;23.27;11.30;;;;;;;3.47;100.00;99565.56;5051444;28;20242;-75
2021/12/02 05:03:06;;;;;;;23.33;12.03;;;;;;;3.37;100.00;99548.16;5051276;28;20204;-75
2021/12/02 05:05:33;;;;;;;18.93;9.30;;;;;;;3.44;100.00;99561.22;5052085;28;20261;-73
2021/12/02 05:08:03;;;;;;;39.87;15.60;;;;;;;3.20;100.00;99493.78;5051814;28;20253;-74
2021/12/02 05:10:30;;;;;;;45.80;21.33;;;;;;;3.80;100.00;99535.97;5060106;28;20199;-74
2021/12/02 05:12:57;;;;;;;22.30;11.50;;;;;;;3.89;100.00;99540.50;5071825;28;20187;-75
2021/12/02 05:15:24;;;;;;;17.90;10.60;;;;;;;3.80;100.00;99546.22;5070177;28;20199;-75
2021/12/02 05:17:51;;;;;;;28.47;11.40;;;;;;;3.87;100.00;99526.78;5071892;28;20233;-74
2021/12/02 05:20:17;;;;;;;19.13;9.10;;;;;;;3.89;100.00;99525.13;5070876;28;20664;-76
2021/12/02 05:22:44;;;;;;;20.83;8.27;;;;;;;3.89;100.00;99531.13;5071458;28;20199;-71
2021/12/02 05:25:12;;;;;;;13.53;6.20;;;;;;;4.53;100.00;99539.97;5071870;28;20198;-71
2021/12/02 05:27:39;;;;;;;14.87;8.80;;;;;;;4.71;100.00;99540.53;5071758;28;20198;-71
2021/12/02 05:30:07;;;;;;;19.20;9.20;;;;;;;4.46;100.00;99513.22;5070498;28;20264;-72
2021/12/02 05:32:34;;;;;;;21.00;9.87;;;;;;;4.65;100.00;99540.31;5071070;28;20191;-71
2021/12/02 05:35:02;;;;;;;26.70;11.23;;;;;;;4.68;100.00;99535.28;5062866;28;20560;-72
2021/12/02 05:37:28;;;;;;;24.93;13.20;;;;;;;4.65;100.00;99522.34;5051732;28;20667;-75
2021/12/02 05:39:55;;;;;;;7.73;4.30;;;;;;;4.85;100.00;99528.94;5051708;28;20195;-75
2021/12/02 05:42:23;;;;;;;9.87;6.17;;;;;;;5.14;100.00;99525.47;5051972;28;20195;-76
2021/12/02 05:44:50;;;;;;;11.00;5.93;;;;;;;5.17;100.00;99515.31;5051781;28;20559;-74
2021/12/02 05:47:17;;;;;;;5.60;4.47;;;;;;;5.31;100.00;99518.25;5060311;28;20198;-74
2021/12/02 05:49:44;;;;;;;8.47;5.43;;;;;;;5.45;100.00;99511.75;5071531;28;20207;-77
2021/12/02 05:52:11;;;;;;;14.63;6.47;;;;;;;5.61;100.00;99515.56;5071940;28;20203;-73
2021/12/02 05:54:37;;;;;;;23.70;8.70;;;;;;;5.75;100.00;99511.66;5067103;28;20673;-76
2021/12/02 05:57:04;;;;;;;32.23;12.53;;;;;;;5.81;100.00;99512.69;5071218;28;20617;-75
2021/12/02 05:59:33;;;;;;;29.53;12.30;;;;;;;5.86;100.00;99512.81;5071682;28;20194;-78
2021/12/02 06:01:59;;;;;;;23.57;9.97;;;;;;;6.06;100.00;99508.16;5070494;28;20748;-77
2021/12/02 06:04:26;;;;;;;20.23;10.03;;;;;;;6.11;100.00;99517.72;5070742;28;20669;-72
2021/12/02 06:06:53;;;;;;;16.30;7.60;;;;;;;6.23;100.00;99522.28;5052743;28;20686;-74
2021/12/02 06:09:20;;;;;;;14.50;6.80;;;;;;;6.46;100.00;99532.25;5068006;28;20629;-73
2021/12/02 06:11:47;;;;;;;8.43;5.57;;;;;;;6.52;98.11;99530.66;5075118;28;20199;-76
2021/12/02 06:14:14;;;;;;;11.77;5.73;;;;;;;6.57;99.77;99523.91;5065644;28;20296;-73
2021/12/02 06:16:43;;;;;;;2.93;2.40;;;;;;;6.87;96.21;99534.88;5055057;28;20191;-74
2021/12/02 06:19:10;;;;;;;3.23;1.60;;;;;;;7.06;93.78;99524.09;5056004;28;20737;-77
2021/12/02 06:21:38;;;;;;;1.73;1.63;;;;;;;7.22;91.03;99527.84;5055637;28;20219;-75
2021/12/02 06:24:07;;;;;;;1.93;1.83;;;;;;;7.25;90.76;99533.91;5054698;28;20196;-74
2021/12/02 06:26:34;;;;;;;3.83;2.00;;;;;;;7.24;91.04;99541.63;5054514;28;20619;-73
2021/12/02 06:29:01;;;;;;;3.40;1.60;;;;;;;7.24;89.31;99547.63;5059433;28;20199;-78
2021/12/02 06:31:28;;;;;;;6.23;2.00;;;;;;;7.22;88.76;99551.03;5055554;28;20206;-77
2021/12/02 06:33:56;;;;;;;7.83;5.17;;;;;;;7.02;93.69;99526.59;5057997;28;20195;-75
2021/12/02 06:36:22;;;;;;;5.63;4.20;;;;;;;6.95;100.00;99557.41;5071985;28;20589;-78
2021/12/02 06:38:49;;;;;;;6.10;4.83;;;;;;;6.44;100.00;99566.53;5067909;28;20225;-78
2021/12/02 06:41:18;;;;;;;8.37;5.80;;;;;;;6.07;100.00;99562.22;5066146;28;20199;-78
2021/12/02 06:43:45;;;;;;;12.30;6.70;;;;;;;5.84;100.00;99564.22;5074071;28;20202;-78
2021/12/02 06:46:12;;;;;;;16.27;8.03;;;;;;;5.41;100.00;99575.06;5073929;28;20708;-78
2021/12/02 06:48:39;;;;;;;23.17;11.73;;;;;;;4.90;100.00;99589.00;5072386;28;20191;-79
2021/12/02 06:51:09;;;;;;;41.50;17.00;;;;;;;4.68;100.00;99584.94;5073453;28;20190;-77
2021/12/02 06:53:36;;;;;;;31.67;13.77;;;;;;;4.72;100.00;99580.75;5073049;28;20669;-77
2021/12/02 06:56:03;;;;;;;26.40;12.83;;;;;;;4.69;100.00;99583.25;5074218;28;20191;-77
2021/12/02 06:58:30;;;;;;;27.17;13.17;;;;;;;4.69;100.00;99571.28;5071395;28;20642;-77
2021/12/02 07:00:57;;;;;;;28.70;12.50;;;;;;;4.73;100.00;99567.09;5056767;28;20223;-78
2021/12/02 07:03:24;;;;;;;17.70;8.87;;;;;;;4.82;100.00;99570.81;5059641;28;20538;-77
2021/12/02 07:05:50;;;;;;;19.43;7.47;;;;;;;4.93;100.00;99576.25;5054508;28;20690;-72
2021/12/02 07:08:20;;;;;;;25.13;8.47;;;;;;;5.08;100.00;99569.00;5056119;28;20191;-74
2021/12/02 07:10:46;;;;;;;86.97;34.20;;;;;;;5.31;100.00;99565.38;5056762;28;20187;-74
2021/12/02 07:13:13;;;;;;;79.37;31.00;;;;;;;5.46;100.00;99560.63;5062407;28;20282;-74
2021/12/02 07:15:43;;;;;;;39.30;14.87;;;;;;;5.62;100.00;99554.19;5064541;28;20202;-75
2021/12/02 07:18:13;;;;;;;72.83;25.23;;;;;;;5.57;100.00;99511.19;5063978;28;20594;-79
2021/12/02 07:20:43;;;;;;;28.07;12.03;;;;;;;5.14;100.00;99388.44;5057382;28;20786;-81
2021/12/02 07:23:10;;;;;;;37.77;13.37;;;;;;;6.36;100.00;99558.63;5074282;28;20195;-79
2021/12/02 07:25:40;;;;;;;65.13;23.33;;;;;;;6.48;100.00;99561.50;5073672;28;20670;-80
2021/12/02 07:28:08;;;;;;;51.00;21.30;;;;;;;6.57;100.00;99570.25;5073758;28;20201;-78
2021/12/02 07:30:35;;;;;;;51.83;19.43;;;;;;;6.66;100.00;99565.31;5072650;28;20195;-79
2021/12/02 07:33:04;;;;;;;41.90;17.33;;;;;;;6.53;100.00;99532.41;5058338;28;20608;-80
2021/12/02 07:35:31;;;;;;;45.77;15.80;;;;;;;6.72;100.00;99552.56;5067255;28;20210;-77
2021/12/02 07:38:00;;;;;;;18.63;10.87;;;;;;;6.78;100.00;99534.66;5071534;28;20226;-77
2021/12/02 07:40:29;;;;;;;20.10;11.97;;;;;;;6.97;100.00;99547.09;5052984;28;20199;-78
2021/12/02 07:42:58;;;;;;;86.07;28.67;;;;;;;7.31;100.00;99546.91;5073264;28;20673;-77
2021/12/02 07:45:29;;;;;;;16.13;7.13;;;;;;;7.68;100.00;99547.59;5063477;28;20669;-79
2021/12/02 07:47:56;;;;;;;17.10;7.30;;;;;;;7.83;95.64;99546.16;5057040;28;20191;-80
2021/12/02 07:50:23;;;;;;;27.00;14.87;;;;;;;7.79;98.78;99552.13;5053701;28;20191;-81
2021/12/02 07:52:52;;;;;;;16.23;9.17;;;;;;;6.45;99.59;99313.38;5053265;28;20203;-79
2021/12/02 07:55:21;;;;;;;18.83;7.20;;;;;;;7.72;99.41;99544.25;5052920;28;20191;-80
2021/12/02 07:57:48;;;;;;;8.80;5.40;;;;;;;7.86;96.24;99538.47;5070876;28;20265;-81
2021/12/02 08:00:19;;;;;;;3.37;2.87;;;;;;;8.18;88.67;99520.91;5069838;28;20195;-82
2021/12/02 08:02:47;;;;;;;6.00;2.87;;;;;;;8.55;85.86;99547.34;5069271;28;20194;-82
2021/12/02 08:05:15;;;;;;;2.90;2.70;;;;;;;8.64;82.65;99524.19;5072382;28;20217;-81
2021/12/02 08:07:44;;;;;;;5.27;2.33;;;;;;;9.00;81.31;99545.38;5071733;28;20670;-82
2021/12/02 08:10:13;;;;;;;2.90;2.27;;;;;;;9.03;81.81;99544.53;5072128;28;20642;-82
2021/12/02 08:12:46;;;;;;;3.87;2.03;;;;;;;9.10;82.84;99549.78;5072756;28;20195;-81
2021/12/02 08:15:13;;;;;;;12.10;6.93;;;;;;;9.13;82.81;99547.25;5071861;28;20203;-82
2021/12/02 08:17:41;;;;;;;4.05;3.40;;;;;;;9.31;80.54;99551.78;5059373;28;20301;-82
2021/12/02 08:20:09;;;;;;;3.33;2.65;;;;;;;9.33;80.70;99544.91;5055877;28;20218;-82
2021/12/02 08:22:36;;;;;;;4.63;2.22;;;;;;;9.12;78.26;99491.22;5065116;28;20692;-81
2021/12/02 08:25:03;;;;;;;2.88;2.10;;;;;;;9.28;77.12;99506.03;5064086;28;20203;-81
2021/12/02 08:27:30;;;;;;;5.53;2.60;;;;;;;9.59;76.71;99537.41;5072555;28;20199;-80
2021/12/02 08:29:57;;;;;;;2.78;2.50;;;;;;;9.74;76.32;99553.06;5072487;28;20194;-81
2021/12/02 08:32:24;;;;;;;7.32;2.63;;;;;;;9.53;75.90;99496.81;5073340;28;20195;-81
2021/12/02 08:34:54;;;;;;;2.30;2.05;;;;;;;9.94;73.47;99548.97;5072225;28;20643;-81
2021/12/02 08:37:22;;;;;;;2.90;2.20;;;;;;;9.99;72.98;99549.03;5065959;28;20205;-80
2021/12/02 08:39:48;;;;;;;4.45;1.60;;;;;;;9.97;73.24;99546.41;5066858;28;20223;-81
2021/12/02 08:42:16;;;;;;;13.63;4.30;;;;;;;9.84;73.35;99537.69;5067418;28;20201;-79
2021/12/02 08:44:44;;;;;;;2.92;2.22;;;;;;;10.02;73.34;99549.03;5056105;28;20287;-81
2021/12/02 08:47:12;;;;;;;10.68;4.22;;;;;;;9.60;74.21;99470.13;5071533;28;20209;-80
2021/12/02 08:49:38;;;;;;;11.88;4.47;;;;;;;10.12;73.84;99546.53;5053949;28;20200;-80
2021/12/02 08:52:07;;;;;;;7.40;3.17;;;;;;;10.18;74.33;99546.63;5052352;28;20195;-81
2021/12/02 08:54:34;;;;;;;5.47;3.10;;;;;;;10.23;73.61;99547.53;5052845;28;20218;-80
2021/12/02 08:57:01;;;;;;;4.60;2.80;;;;;;;10.27;74.14;99530.28;5051608;28;20207;-82
2021/12/02 08:59:28;;;;;;;6.72;2.75;;;;;;;10.33;74.16;99538.97;5051938;28;20281;-81
2021/12/02 09:01:55;;;;;;;3.20;2.67;;;;;;;10.37;73.90;99542.44;5062908;28;20219;-81
2021/12/02 09:04:22;;;;;;;7.20;2.78;;;;;;;10.50;74.75;99540.78;5069862;28;20191;-81
2021/12/02 09:06:49;;;;;;;3.70;2.67;;;;;;;10.66;73.97;99532.25;5071807;28;20199;-77
2021/12/02 09:09:17;;;;;;;2.95;2.75;;;;;;;10.23;74.80;99432.66;5071596;28;20198;-79
2021/12/02 09:11:44;;;;;;;5.95;2.25;;;;;;;10.94;73.25;99526.34;5071653;28;20198;-80
2021/12/02 09:14:10;;;;;;;4.35;2.40;;;;;;;10.85;71.66;99479.63;5064411;28;20200;-80
2021/12/02 09:16:37;;;;;;;9.25;4.53;;;;;;;11.20;70.87;99498.75;5052562;28;20219;-79
2021/12/02 09:19:04;;;;;;;7.80;2.90;;;;;;;11.35;69.70;99501.41;5052564;28;20231;-81
2021/12/02 09:21:31;;;;;;;11.32;4.20;;;;;;;11.47;69.63;99497.13;5052881;28;20195;-79
2021/12/02 09:23:58;;;;;;;7.50;4.20;;;;;;;11.52;69.50;99493.69;5052325;28;20218;-78
2021/12/02 09:26:26;;;;;;;16.25;7.80;;;;;;;11.67;70.21;99500.59;5051792;28;20227;-80
2021/12/02 09:28:54;;;;;;;7.93;4.47;;;;;;;11.77;68.90;99489.41;5068976;28;20210;-77
2021/12/02 09:31:22;;;;;;;8.30;4.38;;;;;;;11.89;69.88;99486.81;5064530;28;20590;-76
2021/12/02 09:33:49;;;;;;;5.05;3.22;;;;;;;11.93;67.46;99484.22;5070336;28;20206;-82
2021/12/02 09:36:17;;;;;;;10.77;4.43;;;;;;;12.13;66.62;99486.78;5060973;28;20205;-79
2021/12/02 09:38:44;;;;;;;11.07;3.10;;;;;;;12.19;65.93;99480.72;5066767;28;20233;-81
2021/12/02 09:41:11;;;;;;;10.60;4.43;;;;;;;12.30;64.67;99479.00;5070079;28;20260;-75
2021/12/02 09:43:39;;;;;;;9.00;6.15;;;;;;;12.51;67.96;99478.06;5074654;28;20198;-78
2021/12/02 09:46:07;;;;;;;14.52;7.32;;;;;;;12.56;66.47;99473.69;5074915;28;20202;-77
2021/12/02 09:48:34;;;;;;;18.65;8.00;;;;;;;12.63;64.43;99473.69;5075016;28;20204;-81
2021/12/02 09:51:06;;;;;;;18.85;8.95;;;;;;;12.85;72.26;99475.34;5074295;28;20226;-76
2021/12/02 09:53:37;;;;;;;18.35;7.72;;;;;;;13.05;67.93;99471.81;5063188;28;20191;-78
2021/12/02 09:56:14;;;;;;;7.55;4.15;;;;;;;12.78;63.38;99428.53;5066401;28;20685;-81
2021/12/02 09:58:42;;;;;;;12.88;5.00;;;;;;;13.03;64.39;99461.38;5073571;28;20258;-81
2021/12/02 10:01:11;;;;;;;5.13;3.92;;;;;;;12.81;64.51;99450.22;5075046;28;20237;-80
2021/12/02 10:03:39;;;;;;;12.15;6.10;;;;;;;12.97;65.82;99453.63;5062308;28;20274;-76
2021/12/02 10:06:09;;;;;;;43.28;24.35;;;;;;;13.12;63.49;99447.50;5055207;28;20202;-78
2021/12/02 10:08:44;;;;;;;32.63;20.73;;;;;;;13.15;62.02;99448.34;5060495;28;20191;-80
2021/12/02 10:11:15;;;;;;;40.20;25.55;;;;;;;13.16;60.81;99444.84;5075018;28;20221;-81
2021/12/02 10:13:47;;;;;;;7.53;5.57;;;;;;;13.30;61.11;99448.28;5072797;28;20202;-84
2021/12/02 10:16:25;;;;;;;14.52;7.93;;;;;;;13.46;62.37;99445.53;5057832;28;20261;-75
2021/12/02 10:19:01;;;;;;;13.20;5.90;;;;;;;13.39;62.48;99445.59;5061173;28;20222;-81
2021/12/02 10:21:31;;;;;;;12.20;5.05;;;;;;;13.38;67.39;99410.00;5074970;28;20194;-82
2021/12/02 10:24:03;;;;;;;10.27;4.53;;;;;;;13.57;62.68;99428.09;5074531;28;20199;-82
2021/12/02 10:26:35;;;;;;;9.65;6.63;;;;;;;13.33;61.70;99393.56;5074812;28;20205;-82
2021/12/02 10:29:13;;;;;;;8.52;4.38;;;;;;;13.68;61.73;99423.69;5065866;28;20216;-81
2021/12/02 10:31:42;;;;;;;5.10;3.90;;;;;;;13.81;60.66;99420.09;5054272;28;20235;-81
2021/12/02 10:34:09;;;;;;;8.10;4.05;;;;;;;13.54;61.01;99382.13;5055888;28;20198;-77
2021/12/02 10:36:39;;;;;;;5.13;3.67;;;;;;;13.68;60.73;99400.25;5074315;28;20600;-78
2021/12/02 10:39:10;;;;;;;5.82;4.03;;;;;;;13.84;60.92;99415.72;5065256;28;20219;-79
2021/12/02 10:41:42;;;;;;;10.02;4.10;;;;;;;13.54;60.86;99355.22;5054415;28;20196;-78
2021/12/02 10:44:23;;;;;;;6.22;3.92;;;;;;;13.74;60.93;99408.84;5054084;28;20205;-78
2021/12/02 10:47:01;;;;;;;10.07;4.50;;;;;;;13.73;65.10;99404.50;5053632;28;20207;-78
2021/12/02 10:49:30;;;;;;;9.25;4.78;;;;;;;13.70;62.04;99403.69;5064162;28;20198;-78
2021/12/02 10:52:00;;;;;;;14.45;6.50;;;;;;;13.76;61.59;99401.03;5073990;28;20609;-80
2021/12/02 10:54:29;;;;;;;10.55;5.50;;;;;;;13.76;61.51;99398.44;5063304;28;20277;-80
2021/12/02 10:56:58;;;;;;;13.50;3.63;;;;;;;13.55;61.60;99391.69;5053488;28;20199;-80
2021/12/02 10:59:43;;;;;;;7.72;3.72;;;;;;;13.45;61.36;99396.97;5063298;28;20226;-80
2021/12/02 11:02:18;;;;;;;6.10;3.47;;;;;;;13.13;61.68;99345.97;5052973;28;20224;-80
2021/12/02 11:04:47;;;;;;;24.02;8.20;;;;;;;13.55;61.16;99396.00;5052724;28;20562;-81
2021/12/02 11:07:21;;;;;;;23.75;10.20;;;;;;;13.52;61.23;99390.84;5052283;28;20650;-80
2021/12/02 11:09:50;;;;;;;9.75;4.65;;;;;;;13.33;60.65;99377.94;5058721;28;20190;-80
2021/12/02 11:12:20;;;;;;;6.85;4.18;;;;;;;12.89;62.03;99305.34;5053554;28;20199;-81
2021/12/02 11:15:01;;;;;;;43.35;24.10;;;;;;;13.26;64.64;99368.47;5053143;28;20218;-79
2021/12/02 11:17:31;;;;;;;8.57;6.85;;;;;;;13.30;64.00;99371.91;5059865;28;20208;-77
2021/12/02 11:20:00;;;;;;;10.30;5.07;;;;;;;13.01;64.58;99340.84;5058059;28;20227;-81
2021/12/02 11:22:29;;;;;;;5.78;3.65;;;;;;;13.17;63.08;99362.44;5058603;28;20600;-80
2021/12/02 11:24:56;;;;;;;5.68;4.22;;;;;;;13.04;64.50;99355.56;5071404;28;20187;-79
2021/12/02 11:27:25;;;;;;;8.90;4.75;;;;;;;13.08;66.84;99358.13;5069250;28;20199;-81
2021/12/02 11:29:57;;;;;;;9.32;3.88;;;;;;;12.89;70.95;99325.28;5060978;28;20191;-81
2021/12/02 11:32:37;;;;;;;6.53;4.30;;;;;;;13.09;72.68;99354.66;5061518;28;20183;-79
2021/12/02 11:35:08;;;;;;;7.35;4.22;;;;;;;13.12;73.54;99353.81;5067939;28;20208;-80
2021/12/02 11:37:38;;;;;;;5.78;3.08;;;;;;;12.41;74.28;99227.66;5053736;28;20586;-80
2021/12/02 11:40:08;;;;;;;13.30;4.65;;;;;;;12.99;75.58;99337.38;5053779;28;20241;-79